Current Weather

Lancaster Rgnl

Lancaster, Texas (KLNC)

Report from: Sunday, February 25, 2024 2:55 PM CST
Current time: Sunday, February 25, 2024 3:26 PM CST

Nearby weather – Weather history – Daily summaries
Weather forecast

Temperature26.6°C (79.9°F)
Dew point12.4°C (54.3°F)
Winds 13 kts (6.7 m/s, 15 mph) South (190°)
Wind gusts 22 kts (11.3 m/s, 25.3 mph)
Visibility10 mi. (16.1 km)
Clouds Sky clear
Altimeter29.87 in.Hg (1012 mB)
Relative humidity41 %
Density altitude1,600 ft. (488 m)
Remarks Fully automated report
Automated weather observing station with precipitation discriminator
Flight conditions Visual Meteorological Conditions
Raw dataKLNC 252055Z AUTO 19013G22KT 10SM CLR 27/12 A2987 RMK AO2 T02660124
An error has occurred. This application may no longer respond until reloaded. Reload 🗙